sensor_id;sensor_type;location;lat;lon;timestamp;P1;durP1;ratioP1;P2;durP2;ratioP2
17171;SDS011;8701;50.150;8.756;2023-08-06T00:02:01;5.00;;;3.87;;
17171;SDS011;8701;50.150;8.756;2023-08-06T00:06:04;5.73;;;3.73;;
17171;SDS011;8701;50.150;8.756;2023-08-06T00:10:08;3.50;;;3.30;;
17171;SDS011;8701;50.150;8.756;2023-08-06T00:14:10;5.20;;;3.60;;
17171;SDS011;8701;50.150;8.756;2023-08-06T00:18:12;4.83;;;3.63;;
17171;SDS011;8701;50.150;8.756;2023-08-06T00:22:15;3.80;;;3.47;;
17171;SDS011;8701;50.150;8.756;2023-08-06T00:26:18;4.70;;;3.70;;
17171;SDS011;8701;50.150;8.756;2023-08-06T00:30:20;4.40;;;3.67;;
17171;SDS011;8701;50.150;8.756;2023-08-06T00:34:25;6.00;;;3.50;;
17171;SDS011;8701;50.150;8.756;2023-08-06T00:38:27;5.00;;;4.27;;
17171;SDS011;8701;50.150;8.756;2023-08-06T00:42:31;4.40;;;3.90;;
17171;SDS011;8701;50.150;8.756;2023-08-06T00:46:33;5.97;;;3.80;;
17171;SDS011;8701;50.150;8.756;2023-08-06T00:50:35;8.17;;;3.83;;
17171;SDS011;8701;50.150;8.756;2023-08-06T00:54:37;10.97;;;3.87;;
17171;SDS011;8701;50.150;8.756;2023-08-06T00:58:41;3.97;;;3.50;;
17171;SDS011;8701;50.150;8.756;2023-08-06T01:02:44;4.80;;;4.30;;
17171;SDS011;8701;50.150;8.756;2023-08-06T01:06:47;5.03;;;3.83;;
17171;SDS011;8701;50.150;8.756;2023-08-06T01:10:51;5.90;;;3.63;;
17171;SDS011;8701;50.150;8.756;2023-08-06T01:15:13;4.37;;;3.97;;
17171;SDS011;8701;50.150;8.756;2023-08-06T01:19:19;4.87;;;4.07;;
17171;SDS011;8701;50.150;8.756;2023-08-06T01:23:23;12.27;;;3.93;;
17171;SDS011;8701;50.150;8.756;2023-08-06T01:27:28;4.07;;;3.27;;
17171;SDS011;8701;50.150;8.756;2023-08-06T01:31:38;7.70;;;3.50;;
17171;SDS011;8701;50.150;8.756;2023-08-06T01:35:42;6.13;;;3.83;;
17171;SDS011;8701;50.150;8.756;2023-08-06T01:39:47;6.73;;;3.90;;
17171;SDS011;8701;50.150;8.756;2023-08-06T01:43:49;7.43;;;3.77;;
17171;SDS011;8701;50.150;8.756;2023-08-06T01:47:51;3.83;;;3.50;;
17171;SDS011;8701;50.150;8.756;2023-08-06T01:51:53;6.67;;;3.73;;
17171;SDS011;8701;50.150;8.756;2023-08-06T01:55:57;4.80;;;3.93;;
17171;SDS011;8701;50.150;8.756;2023-08-06T01:59:59;19.13;;;4.13;;
17171;SDS011;8701;50.150;8.756;2023-08-06T02:04:01;5.30;;;3.77;;
17171;SDS011;8701;50.150;8.756;2023-08-06T02:08:03;4.23;;;3.80;;
17171;SDS011;8701;50.150;8.756;2023-08-06T02:12:07;5.90;;;3.97;;
17171;SDS011;8701;50.150;8.756;2023-08-06T02:16:10;4.40;;;4.00;;
17171;SDS011;8701;50.150;8.756;2023-08-06T02:20:12;3.60;;;3.30;;
17171;SDS011;8701;50.150;8.756;2023-08-06T02:24:14;6.47;;;3.90;;
17171;SDS011;8701;50.150;8.756;2023-08-06T02:28:18;4.17;;;3.50;;
17171;SDS011;8701;50.150;8.756;2023-08-06T02:32:20;5.03;;;3.53;;
17171;SDS011;8701;50.150;8.756;2023-08-06T02:36:22;4.00;;;3.70;;
17171;SDS011;8701;50.150;8.756;2023-08-06T02:40:25;5.50;;;3.77;;
17171;SDS011;8701;50.150;8.756;2023-08-06T02:44:28;3.97;;;3.67;;
17171;SDS011;8701;50.150;8.756;2023-08-06T02:48:31;4.03;;;3.70;;
17171;SDS011;8701;50.150;8.756;2023-08-06T02:52:33;6.47;;;3.60;;
17171;SDS011;8701;50.150;8.756;2023-08-06T02:56:36;5.93;;;3.70;;
17171;SDS011;8701;50.150;8.756;2023-08-06T03:00:59;4.70;;;3.40;;
17171;SDS011;8701;50.150;8.756;2023-08-06T03:05:04;3.80;;;3.33;;
17171;SDS011;8701;50.150;8.756;2023-08-06T03:09:11;3.50;;;3.20;;
17171;SDS011;8701;50.150;8.756;2023-08-06T03:13:14;4.53;;;3.13;;
17171;SDS011;8701;50.150;8.756;2023-08-06T03:17:17;3.53;;;3.13;;
17171;SDS011;8701;50.150;8.756;2023-08-06T03:21:20;2.93;;;2.73;;
17171;SDS011;8701;50.150;8.756;2023-08-06T03:25:23;3.67;;;2.87;;
17171;SDS011;8701;50.150;8.756;2023-08-06T03:29:25;8.10;;;2.77;;
17171;SDS011;8701;50.150;8.756;2023-08-06T03:33:30;3.63;;;2.87;;
17171;SDS011;8701;50.150;8.756;2023-08-06T03:37:34;5.73;;;2.80;;
17171;SDS011;8701;50.150;8.756;2023-08-06T03:41:36;2.80;;;2.47;;
17171;SDS011;8701;50.150;8.756;2023-08-06T03:45:39;3.57;;;3.07;;
17171;SDS011;8701;50.150;8.756;2023-08-06T03:49:44;4.17;;;2.70;;
17171;SDS011;8701;50.150;8.756;2023-08-06T03:53:48;5.90;;;2.77;;
17171;SDS011;8701;50.150;8.756;2023-08-06T03:57:50;2.77;;;2.50;;
17171;SDS011;8701;50.150;8.756;2023-08-06T04:01:52;5.43;;;2.90;;
17171;SDS011;8701;50.150;8.756;2023-08-06T04:05:56;3.50;;;2.60;;
17171;SDS011;8701;50.150;8.756;2023-08-06T04:09:59;6.53;;;2.83;;
17171;SDS011;8701;50.150;8.756;2023-08-06T04:14:02;4.37;;;2.70;;
17171;SDS011;8701;50.150;8.756;2023-08-06T04:18:05;3.00;;;2.10;;
17171;SDS011;8701;50.150;8.756;2023-08-06T04:22:08;4.60;;;2.43;;
17171;SDS011;8701;50.150;8.756;2023-08-06T04:26:11;2.43;;;2.20;;
17171;SDS011;8701;50.150;8.756;2023-08-06T04:30:13;11.57;;;2.30;;
17171;SDS011;8701;50.150;8.756;2023-08-06T04:34:16;3.63;;;2.07;;
17171;SDS011;8701;50.150;8.756;2023-08-06T04:38:20;2.87;;;2.00;;
17171;SDS011;8701;50.150;8.756;2023-08-06T04:42:22;3.00;;;2.17;;
17171;SDS011;8701;50.150;8.756;2023-08-06T04:46:24;4.30;;;2.30;;
17171;SDS011;8701;50.150;8.756;2023-08-06T04:50:27;3.57;;;2.30;;
17171;SDS011;8701;50.150;8.756;2023-08-06T04:54:30;2.97;;;2.07;;
17171;SDS011;8701;50.150;8.756;2023-08-06T04:58:32;4.53;;;1.90;;
17171;SDS011;8701;50.150;8.756;2023-08-06T05:02:35;8.63;;;2.33;;
17171;SDS011;8701;50.150;8.756;2023-08-06T05:06:39;4.40;;;2.00;;
17171;SDS011;8701;50.150;8.756;2023-08-06T05:10:43;1.83;;;1.67;;
17171;SDS011;8701;50.150;8.756;2023-08-06T05:14:45;3.90;;;1.70;;
17171;SDS011;8701;50.150;8.756;2023-08-06T05:18:47;3.13;;;1.70;;
17171;SDS011;8701;50.150;8.756;2023-08-06T05:22:50;1.60;;;1.50;;
17171;SDS011;8701;50.150;8.756;2023-08-06T05:26:53;4.20;;;2.07;;
17171;SDS011;8701;50.150;8.756;2023-08-06T05:30:55;2.93;;;1.80;;
17171;SDS011;8701;50.150;8.756;2023-08-06T05:34:58;5.73;;;1.87;;
17171;SDS011;8701;50.150;8.756;2023-08-06T05:39:00;1.97;;;1.77;;
17171;SDS011;8701;50.150;8.756;2023-08-06T05:43:03;3.40;;;2.20;;
17171;SDS011;8701;50.150;8.756;2023-08-06T05:47:05;2.60;;;1.70;;
17171;SDS011;8701;50.150;8.756;2023-08-06T05:51:08;2.03;;;1.67;;
17171;SDS011;8701;50.150;8.756;2023-08-06T05:55:13;4.87;;;1.60;;
17171;SDS011;8701;50.150;8.756;2023-08-06T05:59:16;1.60;;;1.40;;
17171;SDS011;8701;50.150;8.756;2023-08-06T06:03:18;1.57;;;1.40;;
17171;SDS011;8701;50.150;8.756;2023-08-06T06:07:21;1.50;;;1.40;;
17171;SDS011;8701;50.150;8.756;2023-08-06T06:11:23;5.13;;;1.90;;
17171;SDS011;8701;50.150;8.756;2023-08-06T06:15:27;1.67;;;1.57;;
17171;SDS011;8701;50.150;8.756;2023-08-06T06:19:29;2.73;;;1.30;;
17171;SDS011;8701;50.150;8.756;2023-08-06T06:23:31;2.80;;;1.30;;
17171;SDS011;8701;50.150;8.756;2023-08-06T06:27:33;1.83;;;1.27;;
17171;SDS011;8701;50.150;8.756;2023-08-06T06:31:37;2.53;;;1.60;;
17171;SDS011;8701;50.150;8.756;2023-08-06T06:35:39;1.63;;;1.30;;
17171;SDS011;8701;50.150;8.756;2023-08-06T06:39:41;1.97;;;1.20;;
17171;SDS011;8701;50.150;8.756;2023-08-06T06:43:44;3.90;;;1.07;;
17171;SDS011;8701;50.150;8.756;2023-08-06T06:47:48;1.27;;;1.10;;
17171;SDS011;8701;50.150;8.756;2023-08-06T06:51:50;1.50;;;1.10;;
17171;SDS011;8701;50.150;8.756;2023-08-06T06:55:52;1.10;;;0.90;;
17171;SDS011;8701;50.150;8.756;2023-08-06T06:59:55;1.40;;;1.10;;
17171;SDS011;8701;50.150;8.756;2023-08-06T07:03:58;2.07;;;1.10;;
17171;SDS011;8701;50.150;8.756;2023-08-06T07:08:05;1.50;;;1.30;;
17171;SDS011;8701;50.150;8.756;2023-08-06T07:12:07;1.83;;;1.00;;
17171;SDS011;8701;50.150;8.756;2023-08-06T07:16:09;0.80;;;0.80;;
17171;SDS011;8701;50.150;8.756;2023-08-06T07:20:13;1.00;;;0.90;;
17171;SDS011;8701;50.150;8.756;2023-08-06T07:24:15;0.80;;;0.80;;
17171;SDS011;8701;50.150;8.756;2023-08-06T07:28:17;3.93;;;1.30;;
17171;SDS011;8701;50.150;8.756;2023-08-06T07:32:20;1.40;;;1.20;;
17171;SDS011;8701;50.150;8.756;2023-08-06T07:36:23;1.93;;;1.00;;
17171;SDS011;8701;50.150;8.756;2023-08-06T07:40:25;1.33;;;0.90;;
17171;SDS011;8701;50.150;8.756;2023-08-06T07:44:28;0.70;;;0.70;;
17171;SDS011;8701;50.150;8.756;2023-08-06T07:48:30;0.70;;;0.70;;
17171;SDS011;8701;50.150;8.756;2023-08-06T07:52:34;1.23;;;0.80;;
17171;SDS011;8701;50.150;8.756;2023-08-06T07:56:36;0.90;;;0.80;;
17171;SDS011;8701;50.150;8.756;2023-08-06T08:00:38;2.03;;;0.87;;
17171;SDS011;8701;50.150;8.756;2023-08-06T08:04:43;1.27;;;0.80;;
17171;SDS011;8701;50.150;8.756;2023-08-06T08:08:49;1.23;;;0.90;;
17171;SDS011;8701;50.150;8.756;2023-08-06T08:12:52;0.60;;;0.60;;
17171;SDS011;8701;50.150;8.756;2023-08-06T08:16:55;0.97;;;0.80;;
17171;SDS011;8701;50.150;8.756;2023-08-06T08:20:57;1.13;;;0.70;;
17171;SDS011;8701;50.150;8.756;2023-08-06T08:25:00;1.27;;;0.80;;
17171;SDS011;8701;50.150;8.756;2023-08-06T08:29:03;0.80;;;0.80;;
17171;SDS011;8701;50.150;8.756;2023-08-06T08:33:06;0.80;;;0.80;;
17171;SDS011;8701;50.150;8.756;2023-08-06T08:37:08;1.00;;;0.90;;
17171;SDS011;8701;50.150;8.756;2023-08-06T08:41:12;0.70;;;0.70;;
17171;SDS011;8701;50.150;8.756;2023-08-06T08:45:14;1.57;;;0.97;;
17171;SDS011;8701;50.150;8.756;2023-08-06T08:49:16;1.67;;;0.90;;
17171;SDS011;8701;50.150;8.756;2023-08-06T08:53:21;1.57;;;0.83;;
17171;SDS011;8701;50.150;8.756;2023-08-06T08:57:25;3.73;;;1.00;;
17171;SDS011;8701;50.150;8.756;2023-08-06T09:01:27;1.33;;;1.00;;
17171;SDS011;8701;50.150;8.756;2023-08-06T09:05:30;1.30;;;0.80;;
17171;SDS011;8701;50.150;8.756;2023-08-06T09:09:34;1.87;;;1.00;;
17171;SDS011;8701;50.150;8.756;2023-08-06T09:13:39;2.70;;;0.80;;
17171;SDS011;8701;50.150;8.756;2023-08-06T09:17:41;1.20;;;1.10;;
17171;SDS011;8701;50.150;8.756;2023-08-06T09:21:45;1.00;;;0.90;;
17171;SDS011;8701;50.150;8.756;2023-08-06T09:25:49;1.10;;;0.90;;
17171;SDS011;8701;50.150;8.756;2023-08-06T09:29:52;1.73;;;0.80;;
17171;SDS011;8701;50.150;8.756;2023-08-06T09:33:55;0.80;;;0.70;;
17171;SDS011;8701;50.150;8.756;2023-08-06T09:38:04;2.43;;;1.53;;
17171;SDS011;8701;50.150;8.756;2023-08-06T09:42:08;1.20;;;0.70;;
17171;SDS011;8701;50.150;8.756;2023-08-06T09:46:13;2.50;;;0.80;;
17171;SDS011;8701;50.150;8.756;2023-08-06T09:50:17;0.80;;;0.70;;
17171;SDS011;8701;50.150;8.756;2023-08-06T09:54:19;1.70;;;0.90;;
17171;SDS011;8701;50.150;8.756;2023-08-06T09:58:23;0.80;;;0.80;;
17171;SDS011;8701;50.150;8.756;2023-08-06T10:02:28;1.10;;;0.87;;
17171;SDS011;8701;50.150;8.756;2023-08-06T10:06:31;1.20;;;0.80;;
17171;SDS011;8701;50.150;8.756;2023-08-06T10:10:36;0.87;;;0.80;;
17171;SDS011;8701;50.150;8.756;2023-08-06T10:14:38;1.20;;;0.90;;
17171;SDS011;8701;50.150;8.756;2023-08-06T10:18:43;1.37;;;0.70;;
17171;SDS011;8701;50.150;8.756;2023-08-06T10:22:46;1.43;;;0.80;;
17171;SDS011;8701;50.150;8.756;2023-08-06T10:27:02;2.27;;;1.00;;
17171;SDS011;8701;50.150;8.756;2023-08-06T10:31:04;1.10;;;1.00;;
17171;SDS011;8701;50.150;8.756;2023-08-06T10:35:09;1.63;;;1.17;;
17171;SDS011;8701;50.150;8.756;2023-08-06T10:39:30;3.17;;;1.00;;
17171;SDS011;8701;50.150;8.756;2023-08-06T10:43:33;1.00;;;0.80;;
17171;SDS011;8701;50.150;8.756;2023-08-06T10:47:37;1.77;;;0.90;;
17171;SDS011;8701;50.150;8.756;2023-08-06T10:51:41;1.17;;;0.70;;
17171;SDS011;8701;50.150;8.756;2023-08-06T10:55:44;0.70;;;0.70;;
17171;SDS011;8701;50.150;8.756;2023-08-06T10:59:46;0.80;;;0.70;;
17171;SDS011;8701;50.150;8.756;2023-08-06T11:03:48;1.10;;;0.70;;
17171;SDS011;8701;50.150;8.756;2023-08-06T11:07:54;2.50;;;0.80;;
17171;SDS011;8701;50.150;8.756;2023-08-06T11:11:57;0.70;;;0.70;;
17171;SDS011;8701;50.150;8.756;2023-08-06T11:15:59;1.07;;;0.77;;
17171;SDS011;8701;50.150;8.756;2023-08-06T11:20:01;2.87;;;0.60;;
17171;SDS011;8701;50.150;8.756;2023-08-06T11:24:06;0.80;;;0.60;;
17171;SDS011;8701;50.150;8.756;2023-08-06T11:28:08;0.70;;;0.60;;
17171;SDS011;8701;50.150;8.756;2023-08-06T11:32:10;2.30;;;0.70;;
17171;SDS011;8701;50.150;8.756;2023-08-06T11:36:13;0.70;;;0.70;;
17171;SDS011;8701;50.150;8.756;2023-08-06T11:40:16;1.93;;;0.70;;
17171;SDS011;8701;50.150;8.756;2023-08-06T11:44:19;1.10;;;0.70;;
17171;SDS011;8701;50.150;8.756;2023-08-06T11:48:23;0.73;;;0.60;;
17171;SDS011;8701;50.150;8.756;2023-08-06T11:52:25;0.67;;;0.60;;
17171;SDS011;8701;50.150;8.756;2023-08-06T11:56:29;0.97;;;0.83;;
17171;SDS011;8701;50.150;8.756;2023-08-06T12:00:31;2.27;;;0.80;;
17171;SDS011;8701;50.150;8.756;2023-08-06T12:09:08;2.93;;;0.80;;
17171;SDS011;8701;50.150;8.756;2023-08-06T12:13:12;2.90;;;0.80;;
17171;SDS011;8701;50.150;8.756;2023-08-06T12:17:14;1.50;;;0.50;;
17171;SDS011;8701;50.150;8.756;2023-08-06T12:21:16;0.80;;;0.70;;
17171;SDS011;8701;50.150;8.756;2023-08-06T12:25:18;1.80;;;0.70;;
17171;SDS011;8701;50.150;8.756;2023-08-06T12:29:22;1.30;;;0.70;;
17171;SDS011;8701;50.150;8.756;2023-08-06T12:33:24;1.03;;;0.73;;
17171;SDS011;8701;50.150;8.756;2023-08-06T12:37:26;2.77;;;0.93;;
17171;SDS011;8701;50.150;8.756;2023-08-06T12:41:28;0.70;;;0.70;;
17171;SDS011;8701;50.150;8.756;2023-08-06T12:45:32;0.90;;;0.80;;
17171;SDS011;8701;50.150;8.756;2023-08-06T12:49:35;1.20;;;0.77;;
17171;SDS011;8701;50.150;8.756;2023-08-06T12:53:37;0.80;;;0.80;;
17171;SDS011;8701;50.150;8.756;2023-08-06T12:57:39;1.30;;;1.00;;
17171;SDS011;8701;50.150;8.756;2023-08-06T13:01:43;1.30;;;0.70;;
17171;SDS011;8701;50.150;8.756;2023-08-06T13:05:46;2.43;;;0.63;;
17171;SDS011;8701;50.150;8.756;2023-08-06T13:09:48;1.80;;;0.90;;
17171;SDS011;8701;50.150;8.756;2023-08-06T13:13:50;0.80;;;0.73;;
17171;SDS011;8701;50.150;8.756;2023-08-06T13:17:54;7.37;;;0.80;;
17171;SDS011;8701;50.150;8.756;2023-08-06T13:22:00;0.90;;;0.80;;
17171;SDS011;8701;50.150;8.756;2023-08-06T13:26:05;9.90;;;1.00;;
17171;SDS011;8701;50.150;8.756;2023-08-06T13:30:08;0.80;;;0.80;;
17171;SDS011;8701;50.150;8.756;2023-08-06T13:34:12;0.70;;;0.70;;
17171;SDS011;8701;50.150;8.756;2023-08-06T13:38:16;1.67;;;1.07;;
17171;SDS011;8701;50.150;8.756;2023-08-06T13:42:19;1.57;;;0.80;;
17171;SDS011;8701;50.150;8.756;2023-08-06T13:46:21;2.00;;;0.80;;
17171;SDS011;8701;50.150;8.756;2023-08-06T13:50:25;1.53;;;1.10;;
17171;SDS011;8701;50.150;8.756;2023-08-06T13:54:28;1.00;;;0.80;;
17171;SDS011;8701;50.150;8.756;2023-08-06T13:58:30;1.10;;;0.70;;
17171;SDS011;8701;50.150;8.756;2023-08-06T14:02:32;3.17;;;0.80;;
17171;SDS011;8701;50.150;8.756;2023-08-06T14:06:36;0.70;;;0.70;;
17171;SDS011;8701;50.150;8.756;2023-08-06T14:10:38;2.50;;;1.00;;
17171;SDS011;8701;50.150;8.756;2023-08-06T14:14:40;1.10;;;0.73;;
17171;SDS011;8701;50.150;8.756;2023-08-06T14:18:42;0.87;;;0.73;;
17171;SDS011;8701;50.150;8.756;2023-08-06T14:22:46;1.30;;;0.80;;
17171;SDS011;8701;50.150;8.756;2023-08-06T14:26:48;1.43;;;0.80;;
17171;SDS011;8701;50.150;8.756;2023-08-06T14:30:50;2.13;;;0.80;;
17171;SDS011;8701;50.150;8.756;2023-08-06T14:34:52;0.80;;;0.80;;
17171;SDS011;8701;50.150;8.756;2023-08-06T14:38:56;1.00;;;0.67;;
17171;SDS011;8701;50.150;8.756;2023-08-06T14:42:58;3.00;;;0.90;;
17171;SDS011;8701;50.150;8.756;2023-08-06T14:47:01;0.80;;;0.80;;
17171;SDS011;8701;50.150;8.756;2023-08-06T14:51:03;1.20;;;0.90;;
17171;SDS011;8701;50.150;8.756;2023-08-06T14:55:07;0.97;;;0.70;;
17171;SDS011;8701;50.150;8.756;2023-08-06T14:59:10;0.83;;;0.83;;
17171;SDS011;8701;50.150;8.756;2023-08-06T15:03:12;1.00;;;0.87;;
17171;SDS011;8701;50.150;8.756;2023-08-06T15:07:14;1.00;;;0.80;;
17171;SDS011;8701;50.150;8.756;2023-08-06T15:11:17;0.60;;;0.60;;
17171;SDS011;8701;50.150;8.756;2023-08-06T15:15:20;1.13;;;1.03;;
17171;SDS011;8701;50.150;8.756;2023-08-06T15:19:23;1.03;;;0.70;;
17171;SDS011;8701;50.150;8.756;2023-08-06T15:23:25;1.17;;;0.80;;
17171;SDS011;8701;50.150;8.756;2023-08-06T15:27:29;1.80;;;0.97;;
17171;SDS011;8701;50.150;8.756;2023-08-06T15:31:35;0.83;;;0.83;;
17171;SDS011;8701;50.150;8.756;2023-08-06T15:35:38;0.80;;;0.60;;
17171;SDS011;8701;50.150;8.756;2023-08-06T15:39:41;0.80;;;0.70;;
17171;SDS011;8701;50.150;8.756;2023-08-06T15:43:44;0.70;;;0.70;;
17171;SDS011;8701;50.150;8.756;2023-08-06T15:47:46;0.80;;;0.80;;
17171;SDS011;8701;50.150;8.756;2023-08-06T15:51:49;1.10;;;0.80;;
17171;SDS011;8701;50.150;8.756;2023-08-06T15:55:53;0.73;;;0.73;;
17171;SDS011;8701;50.150;8.756;2023-08-06T15:59:57;1.00;;;0.70;;
17171;SDS011;8701;50.150;8.756;2023-08-06T16:03:59;1.20;;;0.80;;
17171;SDS011;8701;50.150;8.756;2023-08-06T16:08:01;0.83;;;0.80;;
17171;SDS011;8701;50.150;8.756;2023-08-06T16:12:05;1.17;;;0.87;;
17171;SDS011;8701;50.150;8.756;2023-08-06T16:16:10;6.13;;;0.97;;
17171;SDS011;8701;50.150;8.756;2023-08-06T16:20:12;1.47;;;1.00;;
17171;SDS011;8701;50.150;8.756;2023-08-06T16:24:15;2.30;;;0.90;;
17171;SDS011;8701;50.150;8.756;2023-08-06T16:28:17;0.90;;;0.90;;
17171;SDS011;8701;50.150;8.756;2023-08-06T16:32:21;1.70;;;0.90;;
17171;SDS011;8701;50.150;8.756;2023-08-06T16:36:24;1.20;;;1.00;;
17171;SDS011;8701;50.150;8.756;2023-08-06T16:40:26;2.97;;;1.50;;
17171;SDS011;8701;50.150;8.756;2023-08-06T16:44:29;1.10;;;1.00;;
17171;SDS011;8701;50.150;8.756;2023-08-06T16:48:33;1.20;;;1.00;;
17171;SDS011;8701;50.150;8.756;2023-08-06T16:52:36;2.43;;;1.17;;
17171;SDS011;8701;50.150;8.756;2023-08-06T16:56:38;1.47;;;0.90;;
17171;SDS011;8701;50.150;8.756;2023-08-06T17:00:43;2.70;;;1.40;;
17171;SDS011;8701;50.150;8.756;2023-08-06T17:04:47;2.30;;;1.10;;
17171;SDS011;8701;50.150;8.756;2023-08-06T17:08:49;14.33;;;1.00;;
17171;SDS011;8701;50.150;8.756;2023-08-06T17:12:52;3.33;;;1.30;;
17171;SDS011;8701;50.150;8.756;2023-08-06T17:16:54;1.53;;;1.20;;
17171;SDS011;8701;50.150;8.756;2023-08-06T17:20:58;1.73;;;1.10;;
17171;SDS011;8701;50.150;8.756;2023-08-06T17:25:01;6.90;;;1.10;;
17171;SDS011;8701;50.150;8.756;2023-08-06T17:29:06;2.63;;;1.10;;
17171;SDS011;8701;50.150;8.756;2023-08-06T17:33:08;1.10;;;1.00;;
17171;SDS011;8701;50.150;8.756;2023-08-06T17:37:13;2.13;;;1.13;;
17171;SDS011;8701;50.150;8.756;2023-08-06T17:41:15;0.80;;;0.80;;
17171;SDS011;8701;50.150;8.756;2023-08-06T17:45:17;2.30;;;1.10;;
17171;SDS011;8701;50.150;8.756;2023-08-06T17:49:20;6.97;;;1.03;;
17171;SDS011;8701;50.150;8.756;2023-08-06T17:53:24;3.27;;;1.07;;
17171;SDS011;8701;50.150;8.756;2023-08-06T17:57:26;1.37;;;1.17;;
17171;SDS011;8701;50.150;8.756;2023-08-06T18:01:28;2.40;;;0.90;;
17171;SDS011;8701;50.150;8.756;2023-08-06T18:05:31;1.33;;;0.80;;
17171;SDS011;8701;50.150;8.756;2023-08-06T18:09:35;1.27;;;0.80;;
17171;SDS011;8701;50.150;8.756;2023-08-06T18:13:38;2.20;;;0.80;;
17171;SDS011;8701;50.150;8.756;2023-08-06T18:17:40;1.90;;;0.80;;
17171;SDS011;8701;50.150;8.756;2023-08-06T18:21:42;0.80;;;0.77;;
17171;SDS011;8701;50.150;8.756;2023-08-06T18:25:46;1.03;;;0.73;;
17171;SDS011;8701;50.150;8.756;2023-08-06T18:29:48;5.10;;;0.80;;
17171;SDS011;8701;50.150;8.756;2023-08-06T18:33:50;1.63;;;0.70;;
17171;SDS011;8701;50.150;8.756;2023-08-06T18:37:52;1.07;;;0.70;;
17171;SDS011;8701;50.150;8.756;2023-08-06T18:41:57;3.13;;;0.80;;
17171;SDS011;8701;50.150;8.756;2023-08-06T18:45:59;2.03;;;0.70;;
17171;SDS011;8701;50.150;8.756;2023-08-06T18:50:02;2.23;;;0.80;;
17171;SDS011;8701;50.150;8.756;2023-08-06T18:54:05;6.43;;;0.83;;
17171;SDS011;8701;50.150;8.756;2023-08-06T18:58:08;1.27;;;0.80;;
17171;SDS011;8701;50.150;8.756;2023-08-06T19:02:11;3.63;;;0.90;;
17171;SDS011;8701;50.150;8.756;2023-08-06T19:06:13;1.10;;;1.00;;
17171;SDS011;8701;50.150;8.756;2023-08-06T19:10:15;0.70;;;0.70;;
17171;SDS011;8701;50.150;8.756;2023-08-06T19:14:19;1.20;;;0.83;;
17171;SDS011;8701;50.150;8.756;2023-08-06T19:18:21;1.10;;;1.00;;
17171;SDS011;8701;50.150;8.756;2023-08-06T19:22:24;0.90;;;0.90;;
17171;SDS011;8701;50.150;8.756;2023-08-06T19:26:26;0.93;;;0.83;;
17171;SDS011;8701;50.150;8.756;2023-08-06T19:30:29;1.47;;;0.87;;
17171;SDS011;8701;50.150;8.756;2023-08-06T19:34:32;2.40;;;0.80;;
17171;SDS011;8701;50.150;8.756;2023-08-06T19:38:34;0.80;;;0.80;;
17171;SDS011;8701;50.150;8.756;2023-08-06T19:42:37;1.27;;;1.17;;
17171;SDS011;8701;50.150;8.756;2023-08-06T19:46:40;0.80;;;0.77;;
17171;SDS011;8701;50.150;8.756;2023-08-06T19:50:48;3.47;;;0.87;;
17171;SDS011;8701;50.150;8.756;2023-08-06T19:54:52;3.13;;;1.20;;
17171;SDS011;8701;50.150;8.756;2023-08-06T19:58:54;1.67;;;0.70;;
17171;SDS011;8701;50.150;8.756;2023-08-06T20:02:58;2.20;;;0.83;;
17171;SDS011;8701;50.150;8.756;2023-08-06T20:07:00;6.40;;;1.10;;
17171;SDS011;8701;50.150;8.756;2023-08-06T20:11:03;2.60;;;0.90;;
17171;SDS011;8701;50.150;8.756;2023-08-06T20:15:06;0.90;;;0.90;;
17171;SDS011;8701;50.150;8.756;2023-08-06T20:19:10;1.50;;;0.90;;
17171;SDS011;8701;50.150;8.756;2023-08-06T20:23:13;0.97;;;0.93;;
17171;SDS011;8701;50.150;8.756;2023-08-06T20:27:16;1.33;;;0.80;;
17171;SDS011;8701;50.150;8.756;2023-08-06T20:31:18;3.47;;;1.50;;
17171;SDS011;8701;50.150;8.756;2023-08-06T20:35:22;1.17;;;0.87;;
17171;SDS011;8701;50.150;8.756;2023-08-06T20:39:25;2.20;;;1.40;;
17171;SDS011;8701;50.150;8.756;2023-08-06T20:43:27;1.77;;;1.37;;
17171;SDS011;8701;50.150;8.756;2023-08-06T20:47:29;2.07;;;1.97;;
17171;SDS011;8701;50.150;8.756;2023-08-06T20:51:33;2.53;;;1.30;;
17171;SDS011;8701;50.150;8.756;2023-08-06T20:55:35;1.00;;;1.00;;
17171;SDS011;8701;50.150;8.756;2023-08-06T20:59:38;2.30;;;0.90;;
17171;SDS011;8701;50.150;8.756;2023-08-06T21:03:40;1.70;;;0.80;;
17171;SDS011;8701;50.150;8.756;2023-08-06T21:07:44;0.90;;;0.70;;
17171;SDS011;8701;50.150;8.756;2023-08-06T21:11:46;1.10;;;1.10;;
17171;SDS011;8701;50.150;8.756;2023-08-06T21:15:57;2.60;;;0.90;;
17171;SDS011;8701;50.150;8.756;2023-08-06T21:20:00;2.03;;;1.20;;
17171;SDS011;8701;50.150;8.756;2023-08-06T21:24:03;1.00;;;1.00;;
17171;SDS011;8701;50.150;8.756;2023-08-06T21:28:06;1.80;;;0.90;;
17171;SDS011;8701;50.150;8.756;2023-08-06T21:32:08;1.60;;;1.50;;
17171;SDS011;8701;50.150;8.756;2023-08-06T21:36:10;1.20;;;1.20;;
17171;SDS011;8701;50.150;8.756;2023-08-06T21:40:15;1.73;;;1.30;;
17171;SDS011;8701;50.150;8.756;2023-08-06T21:44:18;1.77;;;1.60;;
17171;SDS011;8701;50.150;8.756;2023-08-06T21:48:20;3.60;;;1.67;;
17171;SDS011;8701;50.150;8.756;2023-08-06T21:52:24;1.73;;;1.63;;
17171;SDS011;8701;50.150;8.756;2023-08-06T21:56:28;2.60;;;1.60;;
17171;SDS011;8701;50.150;8.756;2023-08-06T22:00:30;2.10;;;1.47;;
17171;SDS011;8701;50.150;8.756;2023-08-06T22:04:33;1.87;;;1.67;;
17171;SDS011;8701;50.150;8.756;2023-08-06T22:08:37;1.53;;;1.30;;
17171;SDS011;8701;50.150;8.756;2023-08-06T22:12:41;3.90;;;1.47;;
17171;SDS011;8701;50.150;8.756;2023-08-06T22:16:44;5.47;;;1.60;;
17171;SDS011;8701;50.150;8.756;2023-08-06T22:20:47;2.40;;;1.60;;
17171;SDS011;8701;50.150;8.756;2023-08-06T22:24:50;3.40;;;1.60;;
17171;SDS011;8701;50.150;8.756;2023-08-06T22:28:54;3.63;;;2.10;;
17171;SDS011;8701;50.150;8.756;2023-08-06T22:32:56;3.30;;;1.40;;
17171;SDS011;8701;50.150;8.756;2023-08-06T22:36:58;3.87;;;1.30;;
17171;SDS011;8701;50.150;8.756;2023-08-06T22:41:00;2.03;;;1.27;;
17171;SDS011;8701;50.150;8.756;2023-08-06T22:45:05;6.20;;;1.63;;
17171;SDS011;8701;50.150;8.756;2023-08-06T22:49:08;2.83;;;1.90;;
17171;SDS011;8701;50.150;8.756;2023-08-06T22:53:10;1.57;;;1.47;;
17171;SDS011;8701;50.150;8.756;2023-08-06T22:57:12;1.57;;;1.23;;
17171;SDS011;8701;50.150;8.756;2023-08-06T23:01:16;2.67;;;1.37;;
17171;SDS011;8701;50.150;8.756;2023-08-06T23:05:18;2.23;;;1.47;;
17171;SDS011;8701;50.150;8.756;2023-08-06T23:09:20;4.30;;;1.40;;
17171;SDS011;8701;50.150;8.756;2023-08-06T23:13:22;2.87;;;1.20;;
17171;SDS011;8701;50.150;8.756;2023-08-06T23:17:26;5.97;;;1.30;;
17171;SDS011;8701;50.150;8.756;2023-08-06T23:21:28;2.47;;;1.33;;
17171;SDS011;8701;50.150;8.756;2023-08-06T23:25:33;2.30;;;1.30;;
17171;SDS011;8701;50.150;8.756;2023-08-06T23:29:36;6.03;;;1.20;;
17171;SDS011;8701;50.150;8.756;2023-08-06T23:33:39;2.80;;;1.00;;
17171;SDS011;8701;50.150;8.756;2023-08-06T23:37:42;5.00;;;1.03;;
17171;SDS011;8701;50.150;8.756;2023-08-06T23:41:44;2.87;;;1.10;;
17171;SDS011;8701;50.150;8.756;2023-08-06T23:45:46;2.03;;;1.30;;
17171;SDS011;8701;50.150;8.756;2023-08-06T23:49:49;7.07;;;1.47;;
17171;SDS011;8701;50.150;8.756;2023-08-06T23:53:52;2.90;;;0.97;;
17171;SDS011;8701;50.150;8.756;2023-08-06T23:57:54;2.90;;;1.10;;
